PWSweather.com
Personal Weather Stations
Station Observations
TARRYHILL
Tarrytown, NY 10591

Tarrytown, NY 10591

Lat: 41.05185, Lon: -73.85296

Elevation: 341

Station Type: Davis Vantage Vue

Latest ConditionsUpdated 3:50:17 PM EDT Thursday, May 5, 2016
Currently Today's Max Today's Min Today's Average
Temperature 55.3°F12.9°C 56.7°F13.7°C 44.3°F6.8°C 48.9°F9.4°C
Dew Point 45.7°F7.6°C 46.8°F8.2°C 42.4°F5.8°C 44.1°F6.7°C
Winds 4.1 mph ESE6.6 kmh ESE 6.2 mph SW10.0 kmh SW - 1.9 mph 3.1 kmh
Wind Gusts 5.0 mph8.0 kmh 16.0 mph25.7 kmh - -
Humidity 70% 96% 68% 84%
Pressure 29.64 in1003.7 mb 29.75 in1007.5 mb 29.64 in1003.7 mb -
Hour Temp Dew Point Humidity Winds Wind Gusts Pressure Precip Precip Rate Daily Precip Total
03:50 PM 55.3°F12.9°C 45.7°F7.6°C 70% 4.1 mph ESE6.6 kmh ESE 5.0 mph8.0 kmh 29.64 in1003.7 mb - 0.00 in0.0 mm 0.00 in0.0 mm
03:40 PM 55.7°F13.2°C 45.6°F7.6°C 69% 3.9 mph W6.3 kmh W 10.0 mph16.1 kmh 29.64 in1003.7 mb - 0.00 in0.0 mm 0.00 in0.0 mm
03:30 PM 55.8°F13.2°C 45.8°F7.7°C 69% 6.2 mph SW10.0 kmh SW 10.0 mph16.1 kmh 29.65 in1004.1 mb - 0.00 in0.0 mm 0.00 in0.0 mm
03:20 PM 56.4°F13.6°C 45.9°F7.7°C 68% 5.1 mph NNW8.2 kmh NNW 12.0 mph19.3 kmh 29.65 in1004.1 mb - 0.00 in0.0 mm 0.00 in0.0 mm
03:10 PM 56.7°F13.7°C 46.2°F7.9°C 68% 3.2 mph NE5.1 kmh NE 5.0 mph8.0 kmh 29.65 in1004.1 mb - 0.00 in0.0 mm 0.00 in0.0 mm
03:00 PM 56.7°F13.7°C 46.6°F8.1°C 69% 2.7 mph WNW4.3 kmh WNW 6.0 mph9.7 kmh 29.65 in1004.1 mb - 0.00 in0.0 mm 0.00 in0.0 mm
02:50 PM 56.3°F13.5°C 45.9°F7.7°C 68% 2.8 mph NE4.5 kmh NE 9.0 mph14.5 kmh 29.65 in1004.1 mb - 0.00 in0.0 mm 0.00 in0.0 mm
02:40 PM 56.6°F13.7°C 46.2°F7.9°C 68% 2.4 mph NE3.9 kmh NE 7.0 mph11.3 kmh 29.66 in1004.4 mb - 0.00 in0.0 mm 0.00 in0.0 mm
02:30 PM 56.3°F13.5°C 45.9°F7.7°C 68% 2.5 mph E4.0 kmh E 4.0 mph6.4 kmh 29.66 in1004.4 mb - 0.00 in0.0 mm 0.00 in0.0 mm
02:20 PM 55.9°F13.3°C 45.9°F7.7°C 69% 4.1 mph NW6.6 kmh NW 11.0 mph17.7 kmh 29.67 in1004.7 mb - 0.00 in0.0 mm 0.00 in0.0 mm
02:10 PM 56.3°F13.5°C 46.3°F7.9°C 69% 2.7 mph NW4.3 kmh NW 6.0 mph9.7 kmh 29.67 in1004.7 mb - 0.00 in0.0 mm 0.00 in0.0 mm
02:00 PM 55.7°F13.2°C 46.1°F7.8°C 70% 2.8 mph WNW4.5 kmh WNW 7.0 mph11.3 kmh 29.67 in1004.7 mb - 0.00 in0.0 mm 0.00 in0.0 mm
01:50 PM 55.1°F12.8°C 45.9°F7.7°C 71% 3.4 mph NE5.5 kmh NE 6.0 mph9.7 kmh 29.67 in1004.7 mb - 0.00 in0.0 mm 0.00 in0.0 mm
01:40 PM 55.4°F13.0°C 45.4°F7.4°C 69% 4.8 mph W7.7 kmh W 11.0 mph17.7 kmh 29.67 in1004.7 mb - 0.00 in0.0 mm 0.00 in0.0 mm
01:30 PM 55.7°F13.2°C 46.8°F8.2°C 72% 2.2 mph NNW3.5 kmh NNW 4.0 mph6.4 kmh 29.67 in1004.7 mb - 0.00 in0.0 mm 0.00 in0.0 mm
01:20 PM 55.0°F12.8°C 45.4°F7.4°C 70% 2.7 mph NNW4.3 kmh NNW 10.0 mph16.1 kmh 29.67 in1004.7 mb - 0.00 in0.0 mm 0.00 in0.0 mm
01:10 PM 55.0°F12.8°C 45.8°F7.7°C 71% 3.3 mph NNW5.3 kmh NNW 6.0 mph9.7 kmh 29.67 in1004.7 mb - 0.00 in0.0 mm 0.00 in0.0 mm
01:00 PM 55.0°F12.8°C 45.8°F7.7°C 71% 1.7 mph E2.7 kmh E 4.0 mph6.4 kmh 29.68 in1005.1 mb - 0.00 in0.0 mm 0.00 in0.0 mm
12:50 PM 55.1°F12.8°C 45.9°F7.7°C 71% 1.7 mph NW2.7 kmh NW 6.0 mph9.7 kmh 29.69 in1005.4 mb - 0.00 in0.0 mm 0.00 in0.0 mm
12:40 PM 55.0°F12.8°C 45.8°F7.7°C 71% 2.7 mph N4.3 kmh N 4.0 mph6.4 kmh 29.69 in1005.4 mb - 0.00 in0.0 mm 0.00 in0.0 mm
12:30 PM 54.7°F12.6°C 45.5°F7.5°C 71% 2.4 mph NNE3.9 kmh NNE 2.0 mph3.2 kmh 29.69 in1005.4 mb - 0.00 in0.0 mm 0.00 in0.0 mm
12:20 PM 54.0°F12.2°C 45.9°F7.7°C 74% 1.3 mph NNE2.1 kmh NNE 2.0 mph3.2 kmh 29.69 in1005.4 mb - 0.00 in0.0 mm 0.00 in0.0 mm
12:10 PM 54.0°F12.2°C 45.5°F7.5°C 73% 3.5 mph NE5.6 kmh NE 8.0 mph12.9 kmh 29.70 in1005.8 mb - 0.00 in0.0 mm 0.00 in0.0 mm
12:00 PM 53.9°F12.2°C 45.4°F7.4°C 73% 3.7 mph S6.0 kmh S 11.0 mph17.7 kmh 29.70 in1005.8 mb - 0.00 in0.0 mm 0.00 in0.0 mm
11:50 AM 53.0°F11.7°C 45.3°F7.4°C 75% 2.5 mph NE4.0 kmh NE 5.0 mph8.0 kmh 29.70 in1005.8 mb - 0.00 in0.0 mm 0.00 in0.0 mm
11:40 AM 52.7°F11.5°C 45.0°F7.2°C 75% 5.9 mph NE9.5 kmh NE 16.0 mph25.7 kmh 29.70 in1005.8 mb - 0.00 in0.0 mm 0.00 in0.0 mm
11:30 AM 52.4°F11.3°C 45.1°F7.3°C 76% 1.9 mph ESE3.1 kmh ESE 3.0 mph4.8 kmh 29.70 in1005.8 mb - 0.00 in0.0 mm 0.00 in0.0 mm
11:20 AM 52.4°F11.3°C 45.7°F7.6°C 78% 3.1 mph NW5.0 kmh NW 4.0 mph6.4 kmh 29.70 in1005.8 mb - 0.00 in0.0 mm 0.00 in0.0 mm
11:10 AM 51.5°F10.8°C 45.2°F7.3°C 79% 2.7 mph WNW4.3 kmh WNW 9.0 mph14.5 kmh 29.71 in1006.1 mb - 0.00 in0.0 mm 0.00 in0.0 mm
11:00 AM 51.2°F10.7°C 44.6°F7.0°C 78% 3.7 mph ENE6.0 kmh ENE 7.0 mph11.3 kmh 29.71 in1006.1 mb - 0.00 in0.0 mm 0.00 in0.0 mm
10:50 AM 50.9°F10.5°C 44.6°F7.0°C 79% 1.6 mph ESE2.6 kmh ESE 4.0 mph6.4 kmh 29.71 in1006.1 mb - 0.00 in0.0 mm 0.00 in0.0 mm
10:40 AM 49.9°F9.9°C 44.0°F6.7°C 80% 2.1 mph E3.4 kmh E 8.0 mph12.9 kmh 29.71 in1006.1 mb - 0.00 in0.0 mm 0.00 in0.0 mm
10:30 AM 49.6°F9.8°C 44.0°F6.7°C 81% 3.3 mph NNW5.3 kmh NNW 8.0 mph12.9 kmh 29.71 in1006.1 mb - 0.00 in0.0 mm 0.00 in0.0 mm
10:20 AM 49.4°F9.7°C 44.2°F6.8°C 82% 3.8 mph NW6.1 kmh NW 6.0 mph9.7 kmh 29.71 in1006.1 mb - 0.00 in0.0 mm 0.00 in0.0 mm
10:10 AM 49.4°F9.7°C 44.1°F6.7°C 82% 3.6 mph ENE5.8 kmh ENE 8.0 mph12.9 kmh 29.72 in1006.4 mb - 0.00 in0.0 mm 0.00 in0.0 mm
10:00 AM 49.4°F9.7°C 44.1°F6.7°C 82% 2.8 mph NNE4.5 kmh NNE 8.0 mph12.9 kmh 29.71 in1006.1 mb - 0.00 in0.0 mm 0.00 in0.0 mm
09:50 AM 49.3°F9.6°C 44.4°F6.9°C 83% 1.5 mph W2.4 kmh W 3.0 mph4.8 kmh 29.72 in1006.4 mb - 0.00 in0.0 mm 0.00 in0.0 mm
09:40 AM 48.9°F9.4°C 44.0°F6.7°C 83% 2.1 mph NNE3.4 kmh NNE 7.0 mph11.3 kmh 29.72 in1006.4 mb - 0.00 in0.0 mm 0.00 in0.0 mm
09:30 AM 48.8°F9.3°C 44.2°F6.8°C 84% 2.8 mph NNW4.5 kmh NNW 7.0 mph11.3 kmh 29.72 in1006.4 mb - 0.00 in0.0 mm 0.00 in0.0 mm
09:20 AM 48.5°F9.2°C 43.8°F6.6°C 84% 0.8 mph NNW1.3 kmh NNW 1.0 mph1.6 kmh 29.72 in1006.4 mb - 0.00 in0.0 mm 0.00 in0.0 mm
09:10 AM 48.3°F9.1°C 43.7°F6.5°C 84% 3.3 mph N5.3 kmh N 6.0 mph9.7 kmh 29.71 in1006.1 mb - 0.00 in0.0 mm 0.00 in0.0 mm
09:00 AM 48.1°F8.9°C 43.5°F6.4°C 84% 3.2 mph NNW5.1 kmh NNW 6.0 mph9.7 kmh 29.70 in1005.8 mb - 0.00 in0.0 mm 0.00 in0.0 mm
08:50 AM 47.9°F8.8°C 43.6°F6.4°C 85% 2.4 mph N3.9 kmh N 6.0 mph9.7 kmh 29.71 in1006.1 mb - 0.00 in0.0 mm 0.00 in0.0 mm
08:40 AM 47.7°F8.7°C 43.7°F6.5°C 86% 2.3 mph NNE3.7 kmh NNE 4.0 mph6.4 kmh 29.71 in1006.1 mb - 0.00 in0.0 mm 0.00 in0.0 mm
08:30 AM 47.3°F8.5°C 43.6°F6.4°C 87% 1.2 mph NNW1.9 kmh NNW 2.0 mph3.2 kmh 29.71 in1006.1 mb - 0.00 in0.0 mm 0.00 in0.0 mm
08:20 AM 46.8°F8.2°C 43.1°F6.2°C 87% 2.5 mph W4.0 kmh W 6.0 mph9.7 kmh 29.71 in1006.1 mb - 0.00 in0.0 mm 0.00 in0.0 mm
08:10 AM 46.4°F8.0°C 43.0°F6.1°C 88% 3.5 mph NW5.6 kmh NW 6.0 mph9.7 kmh 29.71 in1006.1 mb - 0.00 in0.0 mm 0.00 in0.0 mm
08:00 AM 46.2°F7.9°C 42.9°F6.1°C 88% 1.3 mph W2.1 kmh W 3.0 mph4.8 kmh 29.71 in1006.1 mb - 0.00 in0.0 mm 0.00 in0.0 mm
07:50 AM 46.0°F7.8°C 42.9°F6.1°C 89% 0.8 mph NW1.3 kmh NW 2.0 mph3.2 kmh 29.71 in1006.1 mb - 0.00 in0.0 mm 0.00 in0.0 mm
07:40 AM 45.7°F7.6°C 42.6°F5.9°C 89% 2.7 mph N4.3 kmh N 7.0 mph11.3 kmh 29.71 in1006.1 mb - 0.00 in0.0 mm 0.00 in0.0 mm
07:30 AM 45.6°F7.6°C 42.5°F5.8°C 89% 5.4 mph NNW8.7 kmh NNW 8.0 mph12.9 kmh 29.71 in1006.1 mb - 0.00 in0.0 mm 0.00 in0.0 mm
07:20 AM 45.4°F7.4°C 42.7°F5.9°C 90% 1.6 mph NW2.6 kmh NW 6.0 mph9.7 kmh 29.72 in1006.4 mb - 0.00 in0.0 mm 0.00 in0.0 mm
07:10 AM 45.3°F7.4°C 42.8°F6.0°C 91% 1.1 mph NNW1.8 kmh NNW 2.0 mph3.2 kmh 29.71 in1006.1 mb - 0.00 in0.0 mm 0.00 in0.0 mm
07:00 AM 45.1°F7.3°C 42.6°F5.9°C 91% 0.2 mph NNW0.3 kmh NNW 2.0 mph3.2 kmh 29.71 in1006.1 mb - 0.00 in0.0 mm 0.00 in0.0 mm
06:50 AM 44.8°F7.1°C 42.6°F5.9°C 92% 2.4 mph NW3.9 kmh NW 5.0 mph8.0 kmh 29.70 in1005.8 mb - 0.00 in0.0 mm 0.00 in0.0 mm
06:40 AM 44.6°F7.0°C 42.4°F5.8°C 92% 2.9 mph N4.7 kmh N 4.0 mph6.4 kmh 29.70 in1005.8 mb - 0.00 in0.0 mm 0.00 in0.0 mm
06:30 AM 44.6°F7.0°C 42.4°F5.8°C 92% 3.4 mph NW5.5 kmh NW 4.0 mph6.4 kmh 29.70 in1005.8 mb - 0.00 in0.0 mm 0.00 in0.0 mm
06:20 AM 44.6°F7.0°C 42.7°F5.9°C 93% 3.6 mph NW5.8 kmh NW 6.0 mph9.7 kmh 29.69 in1005.4 mb - 0.00 in0.0 mm 0.00 in0.0 mm
06:10 AM 44.5°F6.9°C 42.9°F6.1°C 94% 2.0 mph NE3.2 kmh NE 3.0 mph4.8 kmh 29.70 in1005.8 mb - 0.00 in0.0 mm 0.00 in0.0 mm
06:00 AM 44.4°F6.9°C 43.1°F6.2°C 95% 0.7 mph NE1.1 kmh NE 2.0 mph3.2 kmh 29.70 in1005.8 mb - 0.00 in0.0 mm 0.00 in0.0 mm
05:50 AM 44.3°F6.8°C 43.0°F6.1°C 95% 0.2 mph WNW0.3 kmh WNW 1.0 mph1.6 kmh 29.70 in1005.8 mb - 0.00 in0.0 mm 0.00 in0.0 mm
05:40 AM 44.3°F6.8°C 43.0°F6.1°C 95% 1.7 mph NW2.7 kmh NW 5.0 mph8.0 kmh 29.70 in1005.8 mb - 0.00 in0.0 mm 0.00 in0.0 mm
05:30 AM 44.3°F6.8°C 43.2°F6.2°C 96% Calm Calm 1.0 mph1.6 kmh 29.70 in1005.8 mb - 0.00 in0.0 mm 0.00 in0.0 mm
05:20 AM 44.3°F6.8°C 43.0°F6.1°C 95% Calm Calm 1.0 mph1.6 kmh 29.71 in1006.1 mb - 0.00 in0.0 mm 0.00 in0.0 mm
05:10 AM 44.3°F6.8°C 43.0°F6.1°C 95% Calm Calm -- 29.71 in1006.1 mb - 0.00 in0.0 mm 0.00 in0.0 mm
05:00 AM 44.4°F6.9°C 43.1°F6.2°C 95% Calm Calm -- 29.71 in1006.1 mb - 0.00 in0.0 mm 0.00 in0.0 mm
04:50 AM 44.4°F6.9°C 43.1°F6.2°C 95% 0.2 mph NW0.3 kmh NW -- 29.71 in1006.1 mb - 0.00 in0.0 mm 0.00 in0.0 mm
04:40 AM 44.5°F6.9°C 43.1°F6.2°C 95% Calm Calm 1.0 mph1.6 kmh 29.71 in1006.1 mb - 0.00 in0.0 mm 0.00 in0.0 mm
04:30 AM 44.5°F6.9°C 42.9°F6.1°C 94% 0.4 mph W0.6 kmh W 1.0 mph1.6 kmh 29.72 in1006.4 mb - 0.00 in0.0 mm 0.00 in0.0 mm
04:20 AM 44.6°F7.0°C 43.0°F6.1°C 94% Calm Calm 1.0 mph1.6 kmh 29.72 in1006.4 mb - 0.00 in0.0 mm 0.00 in0.0 mm
04:10 AM 44.6°F7.0°C 43.0°F6.1°C 94% 0.1 mph WNW0.2 kmh WNW 1.0 mph1.6 kmh 29.72 in1006.4 mb - 0.00 in0.0 mm 0.00 in0.0 mm
04:00 AM 44.6°F7.0°C 43.0°F6.1°C 94% 1.2 mph NW1.9 kmh NW 2.0 mph3.2 kmh 29.71 in1006.1 mb - 0.00 in0.0 mm 0.00 in0.0 mm
03:50 AM 44.7°F7.1°C 43.1°F6.2°C 94% 1.7 mph NW2.7 kmh NW 2.0 mph3.2 kmh 29.71 in1006.1 mb - 0.00 in0.0 mm 0.00 in0.0 mm
03:40 AM 44.8°F7.1°C 43.2°F6.2°C 94% 2.0 mph ENE3.2 kmh ENE 5.0 mph8.0 kmh 29.71 in1006.1 mb - 0.00 in0.0 mm 0.00 in0.0 mm
03:30 AM 45.0°F7.2°C 43.1°F6.2°C 93% 0.9 mph NW1.4 kmh NW 2.0 mph3.2 kmh 29.71 in1006.1 mb - 0.00 in0.0 mm 0.00 in0.0 mm
03:20 AM 45.2°F7.3°C 43.3°F6.3°C 93% Calm Calm -- 29.72 in1006.4 mb - 0.00 in0.0 mm 0.00 in0.0 mm
03:10 AM 45.4°F7.4°C 43.2°F6.2°C 92% 0.7 mph NW1.1 kmh NW 3.0 mph4.8 kmh 29.73 in1006.8 mb - 0.00 in0.0 mm 0.00 in0.0 mm
03:00 AM 45.6°F7.6°C 43.1°F6.2°C 91% 0.2 mph NNW0.3 kmh NNW 2.0 mph3.2 kmh 29.73 in1006.8 mb - 0.00 in0.0 mm 0.00 in0.0 mm
02:50 AM 45.7°F7.6°C 43.2°F6.2°C 91% Calm Calm -- 29.74 in1007.1 mb - 0.00 in0.0 mm 0.00 in0.0 mm
02:40 AM 45.8°F7.7°C 43.0°F6.1°C 90% 0.5 mph NNW0.8 kmh NNW 1.0 mph1.6 kmh 29.73 in1006.8 mb - 0.00 in0.0 mm 0.00 in0.0 mm
02:30 AM 45.9°F7.7°C 43.1°F6.2°C 90% 0.1 mph NNE0.2 kmh NNE 1.0 mph1.6 kmh 29.73 in1006.8 mb - 0.00 in0.0 mm 0.00 in0.0 mm
02:20 AM 45.9°F7.7°C 43.1°F6.2°C 90% Calm Calm 1.0 mph1.6 kmh 29.73 in1006.8 mb - 0.00 in0.0 mm 0.00 in0.0 mm
02:10 AM 46.0°F7.8°C 43.2°F6.2°C 90% 0.1 mph NW0.2 kmh NW 2.0 mph3.2 kmh 29.73 in1006.8 mb - 0.00 in0.0 mm 0.00 in0.0 mm
02:00 AM 46.2°F7.9°C 43.1°F6.2°C 89% 0.4 mph NW0.6 kmh NW 1.0 mph1.6 kmh 29.73 in1006.8 mb - 0.00 in0.0 mm 0.00 in0.0 mm
01:50 AM 46.3°F7.9°C 43.2°F6.2°C 89% 0.3 mph WSW0.5 kmh WSW 1.0 mph1.6 kmh 29.74 in1007.1 mb - 0.00 in0.0 mm 0.00 in0.0 mm
01:40 AM 46.3°F7.9°C 43.2°F6.2°C 89% 2.5 mph NW4.0 kmh NW 5.0 mph8.0 kmh 29.74 in1007.1 mb - 0.00 in0.0 mm 0.00 in0.0 mm
01:30 AM 46.4°F8.0°C 43.6°F6.4°C 90% Calm Calm -- 29.74 in1007.1 mb - 0.00 in0.0 mm 0.00 in0.0 mm
01:20 AM 46.4°F8.0°C 43.4°F6.3°C 89% Calm Calm -- 29.75 in1007.5 mb - 0.00 in0.0 mm 0.00 in0.0 mm
01:10 AM 46.5°F8.1°C 43.4°F6.3°C 89% Calm Calm -- 29.74 in1007.1 mb - 0.00 in0.0 mm 0.00 in0.0 mm
01:00 AM 46.5°F8.1°C 43.7°F6.5°C 90% 1.9 mph N3.1 kmh N 4.0 mph6.4 kmh 29.74 in1007.1 mb - 0.00 in0.0 mm 0.00 in0.0 mm
12:50 AM 46.5°F8.1°C 43.7°F6.5°C 90% 0.3 mph N0.5 kmh N 1.0 mph1.6 kmh 29.75 in1007.5 mb - 0.00 in0.0 mm 0.00 in0.0 mm
12:40 AM 46.5°F8.1°C 43.7°F6.5°C 90% Calm Calm 1.0 mph1.6 kmh 29.75 in1007.5 mb - 0.00 in0.0 mm 0.00 in0.0 mm
12:30 AM 46.5°F8.1°C 43.7°F6.5°C 90% Calm Calm -- 29.75 in1007.5 mb - 0.00 in0.0 mm 0.00 in0.0 mm
12:20 AM 46.6°F8.1°C 43.8°F6.6°C 90% Calm Calm -- 29.75 in1007.5 mb - 0.00 in0.0 mm 0.00 in0.0 mm
12:10 AM 46.6°F8.1°C 43.8°F6.6°C 90% 0.4 mph WNW0.6 kmh WNW 1.0 mph1.6 kmh 29.75 in1007.5 mb - 0.00 in0.0 mm 0.00 in0.0 mm
12:00 AM 46.6°F8.1°C 43.8°F6.6°C 90% 0.3 mph NW0.5 kmh NW -- 29.75 in1007.5 mb - 0.00 in0.0 mm 0.00 in0.0 mm